sensor_id;sensor_type;location;lat;lon;timestamp;temperature;humidity
22781;DHT22;11557;50.884;4.322;2024-01-30T00:01:43;11.70;99.90
22781;DHT22;11557;50.884;4.322;2024-01-30T00:04:08;11.80;99.90
22781;DHT22;11557;50.884;4.322;2024-01-30T00:06:34;11.80;99.90
22781;DHT22;11557;50.884;4.322;2024-01-30T00:09:00;11.80;99.90
22781;DHT22;11557;50.884;4.322;2024-01-30T00:11:26;11.80;99.90
22781;DHT22;11557;50.884;4.322;2024-01-30T00:13:52;13.10;99.90
22781;DHT22;11557;50.884;4.322;2024-01-30T00:16:22;11.90;99.90
22781;DHT22;11557;50.884;4.322;2024-01-30T00:18:50;11.90;99.90
22781;DHT22;11557;50.884;4.322;2024-01-30T00:21:15;11.80;99.90
22781;DHT22;11557;50.884;4.322;2024-01-30T00:23:41;11.80;99.90
22781;DHT22;11557;50.884;4.322;2024-01-30T00:26:06;11.80;99.90
22781;DHT22;11557;50.884;4.322;2024-01-30T00:28:32;11.80;99.90
22781;DHT22;11557;50.884;4.322;2024-01-30T00:30:58;11.80;99.90
22781;DHT22;11557;50.884;4.322;2024-01-30T00:33:23;11.80;99.90
22781;DHT22;11557;50.884;4.322;2024-01-30T00:35:49;11.90;99.90
22781;DHT22;11557;50.884;4.322;2024-01-30T00:38:14;11.90;99.90
22781;DHT22;11557;50.884;4.322;2024-01-30T00:40:40;11.90;99.90
22781;DHT22;11557;50.884;4.322;2024-01-30T00:43:06;11.90;99.90
22781;DHT22;11557;50.884;4.322;2024-01-30T00:45:31;12.00;99.90
22781;DHT22;11557;50.884;4.322;2024-01-30T00:47:57;12.00;99.90
22781;DHT22;11557;50.884;4.322;2024-01-30T00:50:23;11.90;99.90
22781;DHT22;11557;50.884;4.322;2024-01-30T00:52:49;11.90;99.90
22781;DHT22;11557;50.884;4.322;2024-01-30T00:55:15;11.90;99.90
22781;DHT22;11557;50.884;4.322;2024-01-30T00:57:41;11.90;99.90
22781;DHT22;11557;50.884;4.322;2024-01-30T01:00:08;11.80;99.90
22781;DHT22;11557;50.884;4.322;2024-01-30T01:02:35;11.80;99.90
22781;DHT22;11557;50.884;4.322;2024-01-30T01:05:01;11.90;99.90
22781;DHT22;11557;50.884;4.322;2024-01-30T01:07:27;11.90;99.90
22781;DHT22;11557;50.884;4.322;2024-01-30T01:09:52;12.00;99.90
22781;DHT22;11557;50.884;4.322;2024-01-30T01:12:18;11.90;99.90
22781;DHT22;11557;50.884;4.322;2024-01-30T01:14:44;12.00;99.90
22781;DHT22;11557;50.884;4.322;2024-01-30T01:17:09;12.00;99.90
22781;DHT22;11557;50.884;4.322;2024-01-30T01:19:35;11.90;99.90
22781;DHT22;11557;50.884;4.322;2024-01-30T01:22:01;11.90;99.90
22781;DHT22;11557;50.884;4.322;2024-01-30T01:24:26;11.80;99.90
22781;DHT22;11557;50.884;4.322;2024-01-30T01:26:52;11.90;99.90
22781;DHT22;11557;50.884;4.322;2024-01-30T01:29:18;12.00;99.90
22781;DHT22;11557;50.884;4.322;2024-01-30T01:31:44;11.90;99.90
22781;DHT22;11557;50.884;4.322;2024-01-30T01:34:10;11.90;99.90
22781;DHT22;11557;50.884;4.322;2024-01-30T01:36:36;12.00;99.90
22781;DHT22;11557;50.884;4.322;2024-01-30T01:39:02;12.00;99.90
22781;DHT22;11557;50.884;4.322;2024-01-30T01:41:34;12.10;99.90
22781;DHT22;11557;50.884;4.322;2024-01-30T01:44:00;12.00;99.90
22781;DHT22;11557;50.884;4.322;2024-01-30T01:46:32;12.00;99.90
22781;DHT22;11557;50.884;4.322;2024-01-30T01:48:58;12.00;99.90
22781;DHT22;11557;50.884;4.322;2024-01-30T01:51:27;12.00;99.90
22781;DHT22;11557;50.884;4.322;2024-01-30T01:53:55;12.10;99.90
22781;DHT22;11557;50.884;4.322;2024-01-30T01:56:23;12.10;99.90
22781;DHT22;11557;50.884;4.322;2024-01-30T01:58:50;12.20;99.90
22781;DHT22;11557;50.884;4.322;2024-01-30T02:01:18;12.10;99.90
22781;DHT22;11557;50.884;4.322;2024-01-30T02:03:46;12.20;99.90
22781;DHT22;11557;50.884;4.322;2024-01-30T02:06:13;12.30;99.90
22781;DHT22;11557;50.884;4.322;2024-01-30T02:08:39;12.30;99.90
22781;DHT22;11557;50.884;4.322;2024-01-30T02:11:05;12.30;99.90
22781;DHT22;11557;50.884;4.322;2024-01-30T02:13:30;12.30;99.90
22781;DHT22;11557;50.884;4.322;2024-01-30T02:15:56;12.30;99.90
22781;DHT22;11557;50.884;4.322;2024-01-30T02:18:22;12.30;99.90
22781;DHT22;11557;50.884;4.322;2024-01-30T02:20:48;12.20;99.90
22781;DHT22;11557;50.884;4.322;2024-01-30T02:23:15;12.20;99.90
22781;DHT22;11557;50.884;4.322;2024-01-30T02:25:42;12.20;99.90
22781;DHT22;11557;50.884;4.322;2024-01-30T02:28:12;12.20;99.90
22781;DHT22;11557;50.884;4.322;2024-01-30T02:30:39;12.20;99.90
22781;DHT22;11557;50.884;4.322;2024-01-30T02:33:05;12.30;99.90
22781;DHT22;11557;50.884;4.322;2024-01-30T02:35:30;12.30;99.90
22781;DHT22;11557;50.884;4.322;2024-01-30T02:37:56;12.30;99.90
22781;DHT22;11557;50.884;4.322;2024-01-30T02:40:22;12.20;99.90
22781;DHT22;11557;50.884;4.322;2024-01-30T02:42:48;12.10;99.90
22781;DHT22;11557;50.884;4.322;2024-01-30T02:45:13;12.10;99.90
22781;DHT22;11557;50.884;4.322;2024-01-30T02:47:40;12.10;99.90
22781;DHT22;11557;50.884;4.322;2024-01-30T02:50:06;12.40;99.90
22781;DHT22;11557;50.884;4.322;2024-01-30T02:52:32;12.10;99.90
22781;DHT22;11557;50.884;4.322;2024-01-30T02:54:58;12.10;99.90
22781;DHT22;11557;50.884;4.322;2024-01-30T02:57:23;12.10;99.90
22781;DHT22;11557;50.884;4.322;2024-01-30T02:59:49;12.20;99.90
22781;DHT22;11557;50.884;4.322;2024-01-30T03:02:15;12.20;99.90
22781;DHT22;11557;50.884;4.322;2024-01-30T03:04:41;12.20;99.90
22781;DHT22;11557;50.884;4.322;2024-01-30T03:07:07;12.30;99.90
22781;DHT22;11557;50.884;4.322;2024-01-30T03:09:33;12.20;99.90
22781;DHT22;11557;50.884;4.322;2024-01-30T03:11:58;12.20;99.90
22781;DHT22;11557;50.884;4.322;2024-01-30T03:14:24;12.20;99.90
22781;DHT22;11557;50.884;4.322;2024-01-30T03:16:50;12.20;99.90
22781;DHT22;11557;50.884;4.322;2024-01-30T03:19:15;12.10;99.90
22781;DHT22;11557;50.884;4.322;2024-01-30T03:21:41;12.10;99.90
22781;DHT22;11557;50.884;4.322;2024-01-30T03:24:06;12.10;99.90
22781;DHT22;11557;50.884;4.322;2024-01-30T03:26:32;12.30;99.90
22781;DHT22;11557;50.884;4.322;2024-01-30T03:28:58;12.30;99.90
22781;DHT22;11557;50.884;4.322;2024-01-30T03:31:24;12.20;99.90
22781;DHT22;11557;50.884;4.322;2024-01-30T03:33:49;12.20;99.90
22781;DHT22;11557;50.884;4.322;2024-01-30T03:36:17;12.20;99.90
22781;DHT22;11557;50.884;4.322;2024-01-30T03:38:43;12.30;99.90
22781;DHT22;11557;50.884;4.322;2024-01-30T03:41:09;12.30;99.90
22781;DHT22;11557;50.884;4.322;2024-01-30T03:43:35;12.30;99.90
22781;DHT22;11557;50.884;4.322;2024-01-30T03:46:02;12.30;99.90
22781;DHT22;11557;50.884;4.322;2024-01-30T03:48:28;12.30;99.90
22781;DHT22;11557;50.884;4.322;2024-01-30T03:50:54;12.20;99.90
22781;DHT22;11557;50.884;4.322;2024-01-30T03:53:20;12.10;99.90
22781;DHT22;11557;50.884;4.322;2024-01-30T03:55:45;12.10;99.90
22781;DHT22;11557;50.884;4.322;2024-01-30T03:58:11;12.10;99.90
22781;DHT22;11557;50.884;4.322;2024-01-30T04:00:37;12.20;99.90
22781;DHT22;11557;50.884;4.322;2024-01-30T04:03:03;12.20;99.90
22781;DHT22;11557;50.884;4.322;2024-01-30T04:05:29;12.20;99.90
22781;DHT22;11557;50.884;4.322;2024-01-30T04:07:54;12.20;99.90
22781;DHT22;11557;50.884;4.322;2024-01-30T04:10:20;12.20;99.90
22781;DHT22;11557;50.884;4.322;2024-01-30T04:12:46;12.30;99.90
22781;DHT22;11557;50.884;4.322;2024-01-30T04:15:11;12.20;99.90
22781;DHT22;11557;50.884;4.322;2024-01-30T04:17:39;12.10;99.90
22781;DHT22;11557;50.884;4.322;2024-01-30T04:20:05;12.10;99.90
22781;DHT22;11557;50.884;4.322;2024-01-30T04:22:31;12.10;99.90
22781;DHT22;11557;50.884;4.322;2024-01-30T04:24:57;12.10;99.90
22781;DHT22;11557;50.884;4.322;2024-01-30T04:27:23;12.10;99.90
22781;DHT22;11557;50.884;4.322;2024-01-30T04:29:49;12.10;99.90
22781;DHT22;11557;50.884;4.322;2024-01-30T04:32:17;12.20;99.90
22781;DHT22;11557;50.884;4.322;2024-01-30T04:34:43;12.20;99.90
22781;DHT22;11557;50.884;4.322;2024-01-30T04:37:08;12.10;99.90
22781;DHT22;11557;50.884;4.322;2024-01-30T04:39:34;12.20;99.90
22781;DHT22;11557;50.884;4.322;2024-01-30T04:42:00;12.20;99.90
22781;DHT22;11557;50.884;4.322;2024-01-30T04:44:26;12.30;99.90
22781;DHT22;11557;50.884;4.322;2024-01-30T04:46:51;12.30;99.90
22781;DHT22;11557;50.884;4.322;2024-01-30T04:49:17;12.30;99.90
22781;DHT22;11557;50.884;4.322;2024-01-30T04:51:42;12.20;99.90
22781;DHT22;11557;50.884;4.322;2024-01-30T04:54:08;12.30;99.90
22781;DHT22;11557;50.884;4.322;2024-01-30T04:56:33;12.20;99.90
22781;DHT22;11557;50.884;4.322;2024-01-30T04:59:02;12.40;99.90
22781;DHT22;11557;50.884;4.322;2024-01-30T05:01:28;12.40;99.90
22781;DHT22;11557;50.884;4.322;2024-01-30T05:03:53;12.40;99.90
22781;DHT22;11557;50.884;4.322;2024-01-30T05:06:25;12.40;99.90
22781;DHT22;11557;50.884;4.322;2024-01-30T05:08:51;12.40;99.90
22781;DHT22;11557;50.884;4.322;2024-01-30T05:11:17;12.40;99.90
22781;DHT22;11557;50.884;4.322;2024-01-30T05:13:42;12.30;99.90
22781;DHT22;11557;50.884;4.322;2024-01-30T05:16:08;12.30;99.90
22781;DHT22;11557;50.884;4.322;2024-01-30T05:18:33;12.30;99.90
22781;DHT22;11557;50.884;4.322;2024-01-30T05:20:59;12.20;99.90
22781;DHT22;11557;50.884;4.322;2024-01-30T05:23:25;12.00;99.90
22781;DHT22;11557;50.884;4.322;2024-01-30T05:25:50;12.10;99.90
22781;DHT22;11557;50.884;4.322;2024-01-30T05:28:16;12.00;99.90
22781;DHT22;11557;50.884;4.322;2024-01-30T05:30:42;12.10;99.90
22781;DHT22;11557;50.884;4.322;2024-01-30T05:33:08;12.10;99.90
22781;DHT22;11557;50.884;4.322;2024-01-30T05:35:33;12.00;99.90
22781;DHT22;11557;50.884;4.322;2024-01-30T05:37:59;12.00;99.90
22781;DHT22;11557;50.884;4.322;2024-01-30T05:40:24;12.10;99.90
22781;DHT22;11557;50.884;4.322;2024-01-30T05:42:50;12.00;99.90
22781;DHT22;11557;50.884;4.322;2024-01-30T05:45:16;12.00;99.90
22781;DHT22;11557;50.884;4.322;2024-01-30T05:47:41;12.10;99.90
22781;DHT22;11557;50.884;4.322;2024-01-30T05:50:07;12.00;99.90
22781;DHT22;11557;50.884;4.322;2024-01-30T05:52:33;12.00;99.90
22781;DHT22;11557;50.884;4.322;2024-01-30T05:54:58;12.10;99.90
22781;DHT22;11557;50.884;4.322;2024-01-30T05:57:24;12.00;99.90
22781;DHT22;11557;50.884;4.322;2024-01-30T05:59:49;12.10;99.90
22781;DHT22;11557;50.884;4.322;2024-01-30T06:02:17;12.00;99.90
22781;DHT22;11557;50.884;4.322;2024-01-30T06:04:42;12.00;99.90
22781;DHT22;11557;50.884;4.322;2024-01-30T06:07:10;12.00;99.90
22781;DHT22;11557;50.884;4.322;2024-01-30T06:09:35;12.00;99.90
22781;DHT22;11557;50.884;4.322;2024-01-30T06:12:01;12.00;99.90
22781;DHT22;11557;50.884;4.322;2024-01-30T06:14:27;11.30;99.90
22781;DHT22;11557;50.884;4.322;2024-01-30T06:16:53;11.90;99.90
22781;DHT22;11557;50.884;4.322;2024-01-30T06:19:18;11.90;99.90
22781;DHT22;11557;50.884;4.322;2024-01-30T06:21:44;11.90;99.90
22781;DHT22;11557;50.884;4.322;2024-01-30T06:24:10;11.80;99.90
22781;DHT22;11557;50.884;4.322;2024-01-30T06:26:36;11.90;99.90
22781;DHT22;11557;50.884;4.322;2024-01-30T06:29:01;11.90;99.90
22781;DHT22;11557;50.884;4.322;2024-01-30T06:31:27;11.80;99.90
22781;DHT22;11557;50.884;4.322;2024-01-30T06:33:53;11.90;99.90
22781;DHT22;11557;50.884;4.322;2024-01-30T06:36:18;11.90;99.90
22781;DHT22;11557;50.884;4.322;2024-01-30T06:38:44;12.00;99.90
22781;DHT22;11557;50.884;4.322;2024-01-30T06:41:10;11.90;99.90
22781;DHT22;11557;50.884;4.322;2024-01-30T06:43:35;11.90;99.90
22781;DHT22;11557;50.884;4.322;2024-01-30T06:46:01;11.90;99.90
22781;DHT22;11557;50.884;4.322;2024-01-30T06:48:27;12.00;99.90
22781;DHT22;11557;50.884;4.322;2024-01-30T06:50:57;11.90;99.90
22781;DHT22;11557;50.884;4.322;2024-01-30T06:53:23;11.80;99.90
22781;DHT22;11557;50.884;4.322;2024-01-30T06:55:48;11.80;99.90
22781;DHT22;11557;50.884;4.322;2024-01-30T06:58:15;13.10;99.90
22781;DHT22;11557;50.884;4.322;2024-01-30T07:00:40;11.90;99.90
22781;DHT22;11557;50.884;4.322;2024-01-30T07:03:07;11.80;99.90
22781;DHT22;11557;50.884;4.322;2024-01-30T07:05:32;11.80;99.90
22781;DHT22;11557;50.884;4.322;2024-01-30T07:07:58;11.80;99.90
22781;DHT22;11557;50.884;4.322;2024-01-30T07:10:25;11.90;99.90
22781;DHT22;11557;50.884;4.322;2024-01-30T07:12:50;11.90;99.90
22781;DHT22;11557;50.884;4.322;2024-01-30T07:15:16;11.90;99.90
22781;DHT22;11557;50.884;4.322;2024-01-30T07:17:45;12.00;99.90
22781;DHT22;11557;50.884;4.322;2024-01-30T07:20:11;12.00;99.90
22781;DHT22;11557;50.884;4.322;2024-01-30T07:22:37;11.90;99.90
22781;DHT22;11557;50.884;4.322;2024-01-30T07:25:03;11.90;99.90
22781;DHT22;11557;50.884;4.322;2024-01-30T07:27:29;11.90;99.90
22781;DHT22;11557;50.884;4.322;2024-01-30T07:29:55;11.90;99.90
22781;DHT22;11557;50.884;4.322;2024-01-30T07:32:20;11.90;99.90
22781;DHT22;11557;50.884;4.322;2024-01-30T07:34:46;11.90;99.90
22781;DHT22;11557;50.884;4.322;2024-01-30T07:37:12;12.00;99.90
22781;DHT22;11557;50.884;4.322;2024-01-30T07:39:41;12.10;99.90
22781;DHT22;11557;50.884;4.322;2024-01-30T07:42:07;12.10;99.90
22781;DHT22;11557;50.884;4.322;2024-01-30T07:44:34;12.00;99.90
22781;DHT22;11557;50.884;4.322;2024-01-30T07:46:59;12.00;99.90
22781;DHT22;11557;50.884;4.322;2024-01-30T07:49:25;12.00;99.90
22781;DHT22;11557;50.884;4.322;2024-01-30T07:51:51;12.00;99.90
22781;DHT22;11557;50.884;4.322;2024-01-30T07:54:16;12.10;99.90
22781;DHT22;11557;50.884;4.322;2024-01-30T07:56:42;12.20;99.90
22781;DHT22;11557;50.884;4.322;2024-01-30T07:59:11;12.30;99.90
22781;DHT22;11557;50.884;4.322;2024-01-30T08:01:37;12.10;99.90
22781;DHT22;11557;50.884;4.322;2024-01-30T08:04:03;12.00;99.90
22781;DHT22;11557;50.884;4.322;2024-01-30T08:06:30;12.00;99.90
22781;DHT22;11557;50.884;4.322;2024-01-30T08:08:55;12.00;99.90
22781;DHT22;11557;50.884;4.322;2024-01-30T08:11:22;12.00;99.90
22781;DHT22;11557;50.884;4.322;2024-01-30T08:13:54;12.10;99.90
22781;DHT22;11557;50.884;4.322;2024-01-30T08:16:20;12.10;99.90
22781;DHT22;11557;50.884;4.322;2024-01-30T08:18:46;12.00;99.90
22781;DHT22;11557;50.884;4.322;2024-01-30T08:21:11;12.10;99.90
22781;DHT22;11557;50.884;4.322;2024-01-30T08:23:40;12.10;99.90
22781;DHT22;11557;50.884;4.322;2024-01-30T08:26:06;12.20;99.90
22781;DHT22;11557;50.884;4.322;2024-01-30T08:28:32;12.10;99.90
22781;DHT22;11557;50.884;4.322;2024-01-30T08:30:58;12.10;99.90
22781;DHT22;11557;50.884;4.322;2024-01-30T08:33:24;12.10;99.90
22781;DHT22;11557;50.884;4.322;2024-01-30T08:35:50;12.20;99.90
22781;DHT22;11557;50.884;4.322;2024-01-30T08:38:15;12.20;99.90
22781;DHT22;11557;50.884;4.322;2024-01-30T08:40:41;12.20;99.90
22781;DHT22;11557;50.884;4.322;2024-01-30T08:43:07;12.20;99.90
22781;DHT22;11557;50.884;4.322;2024-01-30T08:45:35;12.10;99.90
22781;DHT22;11557;50.884;4.322;2024-01-30T08:48:01;12.30;99.90
22781;DHT22;11557;50.884;4.322;2024-01-30T08:50:27;12.30;99.90
22781;DHT22;11557;50.884;4.322;2024-01-30T08:52:53;12.30;99.90
22781;DHT22;11557;50.884;4.322;2024-01-30T08:55:19;12.30;99.90
22781;DHT22;11557;50.884;4.322;2024-01-30T08:57:45;12.30;99.90
22781;DHT22;11557;50.884;4.322;2024-01-30T09:00:11;12.40;99.90
22781;DHT22;11557;50.884;4.322;2024-01-30T09:02:37;12.40;99.90
22781;DHT22;11557;50.884;4.322;2024-01-30T09:05:03;12.40;99.90
22781;DHT22;11557;50.884;4.322;2024-01-30T09:07:28;12.30;99.90
22781;DHT22;11557;50.884;4.322;2024-01-30T09:09:54;12.30;99.90
22781;DHT22;11557;50.884;4.322;2024-01-30T09:12:19;12.30;99.90
22781;DHT22;11557;50.884;4.322;2024-01-30T09:14:45;12.50;99.90
22781;DHT22;11557;50.884;4.322;2024-01-30T09:17:11;12.40;99.90
22781;DHT22;11557;50.884;4.322;2024-01-30T09:19:37;12.40;99.90
22781;DHT22;11557;50.884;4.322;2024-01-30T09:22:03;12.40;99.90
22781;DHT22;11557;50.884;4.322;2024-01-30T09:24:29;12.30;99.90
22781;DHT22;11557;50.884;4.322;2024-01-30T09:26:55;12.30;99.90
22781;DHT22;11557;50.884;4.322;2024-01-30T09:29:21;12.30;99.90
22781;DHT22;11557;50.884;4.322;2024-01-30T09:31:47;12.60;99.90
22781;DHT22;11557;50.884;4.322;2024-01-30T09:34:13;12.30;99.90
22781;DHT22;11557;50.884;4.322;2024-01-30T09:36:39;12.20;99.90
22781;DHT22;11557;50.884;4.322;2024-01-30T09:39:05;12.20;99.90
22781;DHT22;11557;50.884;4.322;2024-01-30T09:41:45;12.20;99.90
22781;DHT22;11557;50.884;4.322;2024-01-30T09:44:12;12.30;99.90
22781;DHT22;11557;50.884;4.322;2024-01-30T09:46:39;12.20;99.90
22781;DHT22;11557;50.884;4.322;2024-01-30T09:49:06;12.20;99.90
22781;DHT22;11557;50.884;4.322;2024-01-30T09:51:32;12.10;99.90
22781;DHT22;11557;50.884;4.322;2024-01-30T09:53:59;12.10;99.90
22781;DHT22;11557;50.884;4.322;2024-01-30T09:56:24;12.30;99.90
22781;DHT22;11557;50.884;4.322;2024-01-30T09:58:50;12.30;99.90
22781;DHT22;11557;50.884;4.322;2024-01-30T10:01:17;12.30;99.90
22781;DHT22;11557;50.884;4.322;2024-01-30T10:03:44;12.30;99.90
22781;DHT22;11557;50.884;4.322;2024-01-30T10:06:11;12.20;99.90
22781;DHT22;11557;50.884;4.322;2024-01-30T10:08:37;12.20;99.90
22781;DHT22;11557;50.884;4.322;2024-01-30T10:11:03;12.20;99.90
22781;DHT22;11557;50.884;4.322;2024-01-30T10:13:29;12.20;99.90
22781;DHT22;11557;50.884;4.322;2024-01-30T10:15:55;12.20;99.90
22781;DHT22;11557;50.884;4.322;2024-01-30T10:18:24;12.20;99.90
22781;DHT22;11557;50.884;4.322;2024-01-30T10:20:51;12.20;99.90
22781;DHT22;11557;50.884;4.322;2024-01-30T10:23:17;12.20;99.90
22781;DHT22;11557;50.884;4.322;2024-01-30T10:25:44;12.10;99.90
22781;DHT22;11557;50.884;4.322;2024-01-30T10:28:11;12.10;99.90
22781;DHT22;11557;50.884;4.322;2024-01-30T10:30:36;12.20;99.90
22781;DHT22;11557;50.884;4.322;2024-01-30T10:33:02;12.20;99.90
22781;DHT22;11557;50.884;4.322;2024-01-30T10:35:28;12.20;99.90
22781;DHT22;11557;50.884;4.322;2024-01-30T10:37:57;12.10;99.90
22781;DHT22;11557;50.884;4.322;2024-01-30T10:40:28;12.00;99.90
22781;DHT22;11557;50.884;4.322;2024-01-30T10:42:55;11.90;99.90
22781;DHT22;11557;50.884;4.322;2024-01-30T10:45:26;11.90;99.90
22781;DHT22;11557;50.884;4.322;2024-01-30T10:47:55;12.10;99.90
22781;DHT22;11557;50.884;4.322;2024-01-30T10:50:27;12.10;99.90
22781;DHT22;11557;50.884;4.322;2024-01-30T10:52:54;12.10;99.90
22781;DHT22;11557;50.884;4.322;2024-01-30T10:55:21;11.80;99.90
22781;DHT22;11557;50.884;4.322;2024-01-30T10:57:48;11.90;99.90
22781;DHT22;11557;50.884;4.322;2024-01-30T11:00:15;11.90;99.90
22781;DHT22;11557;50.884;4.322;2024-01-30T11:02:43;12.00;99.90
22781;DHT22;11557;50.884;4.322;2024-01-30T11:05:10;11.90;99.90
22781;DHT22;11557;50.884;4.322;2024-01-30T11:07:36;11.70;99.90
22781;DHT22;11557;50.884;4.322;2024-01-30T11:10:04;11.60;99.90
22781;DHT22;11557;50.884;4.322;2024-01-30T11:12:31;11.50;99.90
22781;DHT22;11557;50.884;4.322;2024-01-30T11:15:11;11.40;99.90
22781;DHT22;11557;50.884;4.322;2024-01-30T11:17:41;11.30;99.90
22781;DHT22;11557;50.884;4.322;2024-01-30T11:20:20;11.20;99.90
22781;DHT22;11557;50.884;4.322;2024-01-30T11:22:47;11.30;99.90
22781;DHT22;11557;50.884;4.322;2024-01-30T11:25:14;11.20;99.90
22781;DHT22;11557;50.884;4.322;2024-01-30T11:27:42;11.10;99.90
22781;DHT22;11557;50.884;4.322;2024-01-30T11:30:08;11.10;99.90
22781;DHT22;11557;50.884;4.322;2024-01-30T11:32:35;12.50;99.90
22781;DHT22;11557;50.884;4.322;2024-01-30T11:35:03;11.20;99.90
22781;DHT22;11557;50.884;4.322;2024-01-30T11:37:31;11.30;99.90
22781;DHT22;11557;50.884;4.322;2024-01-30T11:39:58;11.30;99.90
22781;DHT22;11557;50.884;4.322;2024-01-30T11:42:24;11.30;99.90
22781;DHT22;11557;50.884;4.322;2024-01-30T11:44:53;11.50;99.90
22781;DHT22;11557;50.884;4.322;2024-01-30T11:47:18;11.60;99.90
22781;DHT22;11557;50.884;4.322;2024-01-30T11:49:44;11.70;99.90
22781;DHT22;11557;50.884;4.322;2024-01-30T11:52:10;11.80;99.90
22781;DHT22;11557;50.884;4.322;2024-01-30T11:54:40;11.90;99.90
22781;DHT22;11557;50.884;4.322;2024-01-30T11:57:06;11.90;99.90
22781;DHT22;11557;50.884;4.322;2024-01-30T11:59:31;11.80;99.90
22781;DHT22;11557;50.884;4.322;2024-01-30T12:01:57;11.70;99.90
22781;DHT22;11557;50.884;4.322;2024-01-30T12:04:23;11.70;99.90
22781;DHT22;11557;50.884;4.322;2024-01-30T12:06:51;11.70;99.90
22781;DHT22;11557;50.884;4.322;2024-01-30T12:09:17;11.70;99.90
22781;DHT22;11557;50.884;4.322;2024-01-30T12:11:47;11.60;99.90
22781;DHT22;11557;50.884;4.322;2024-01-30T12:14:14;11.60;99.90
22781;DHT22;11557;50.884;4.322;2024-01-30T12:16:40;11.60;99.90
22781;DHT22;11557;50.884;4.322;2024-01-30T12:19:09;11.60;99.90
22781;DHT22;11557;50.884;4.322;2024-01-30T12:21:35;11.60;99.90
22781;DHT22;11557;50.884;4.322;2024-01-30T12:24:01;11.70;99.90
22781;DHT22;11557;50.884;4.322;2024-01-30T12:26:27;11.90;99.90
22781;DHT22;11557;50.884;4.322;2024-01-30T12:28:56;12.00;99.90
22781;DHT22;11557;50.884;4.322;2024-01-30T12:31:28;12.00;99.90
22781;DHT22;11557;50.884;4.322;2024-01-30T12:33:54;12.00;99.90
22781;DHT22;11557;50.884;4.322;2024-01-30T12:36:21;12.00;99.90
22781;DHT22;11557;50.884;4.322;2024-01-30T12:38:47;11.90;99.90
22781;DHT22;11557;50.884;4.322;2024-01-30T12:41:13;11.90;99.90
22781;DHT22;11557;50.884;4.322;2024-01-30T12:43:39;11.80;99.90
22781;DHT22;11557;50.884;4.322;2024-01-30T12:46:05;11.70;99.90
22781;DHT22;11557;50.884;4.322;2024-01-30T12:48:31;11.50;99.90
22781;DHT22;11557;50.884;4.322;2024-01-30T12:50:57;11.40;99.90
22781;DHT22;11557;50.884;4.322;2024-01-30T12:53:23;11.50;99.90
22781;DHT22;11557;50.884;4.322;2024-01-30T12:55:49;11.50;99.90
22781;DHT22;11557;50.884;4.322;2024-01-30T12:58:16;11.50;99.90
22781;DHT22;11557;50.884;4.322;2024-01-30T13:00:41;11.50;99.90
22781;DHT22;11557;50.884;4.322;2024-01-30T13:03:10;11.60;99.90
22781;DHT22;11557;50.884;4.322;2024-01-30T13:05:36;11.30;99.90
22781;DHT22;11557;50.884;4.322;2024-01-30T13:08:02;11.30;99.90
22781;DHT22;11557;50.884;4.322;2024-01-30T13:10:28;11.20;99.90
22781;DHT22;11557;50.884;4.322;2024-01-30T13:12:54;11.10;99.90
22781;DHT22;11557;50.884;4.322;2024-01-30T13:15:20;11.10;99.90
22781;DHT22;11557;50.884;4.322;2024-01-30T13:17:45;11.20;99.90
22781;DHT22;11557;50.884;4.322;2024-01-30T13:20:14;11.40;99.90
22781;DHT22;11557;50.884;4.322;2024-01-30T13:22:45;12.50;99.90
22781;DHT22;11557;50.884;4.322;2024-01-30T13:25:10;11.20;99.90
22781;DHT22;11557;50.884;4.322;2024-01-30T13:27:37;11.10;99.90
22781;DHT22;11557;50.884;4.322;2024-01-30T13:30:03;11.10;99.90
22781;DHT22;11557;50.884;4.322;2024-01-30T13:32:29;11.30;99.90
22781;DHT22;11557;50.884;4.322;2024-01-30T13:34:55;11.30;99.90
22781;DHT22;11557;50.884;4.322;2024-01-30T13:37:22;11.30;99.90
22781;DHT22;11557;50.884;4.322;2024-01-30T13:39:48;11.30;99.90
22781;DHT22;11557;50.884;4.322;2024-01-30T13:42:14;11.30;99.90
22781;DHT22;11557;50.884;4.322;2024-01-30T13:44:39;11.30;99.90
22781;DHT22;11557;50.884;4.322;2024-01-30T13:47:05;11.30;99.90
22781;DHT22;11557;50.884;4.322;2024-01-30T13:49:31;11.30;99.90
22781;DHT22;11557;50.884;4.322;2024-01-30T13:51:57;12.40;99.90
22781;DHT22;11557;50.884;4.322;2024-01-30T13:54:23;11.20;99.90
22781;DHT22;11557;50.884;4.322;2024-01-30T13:56:49;11.10;99.90
22781;DHT22;11557;50.884;4.322;2024-01-30T13:59:15;11.20;99.90
22781;DHT22;11557;50.884;4.322;2024-01-30T14:01:41;11.20;99.90
22781;DHT22;11557;50.884;4.322;2024-01-30T14:04:06;11.10;99.90
22781;DHT22;11557;50.884;4.322;2024-01-30T14:06:32;11.10;99.90
22781;DHT22;11557;50.884;4.322;2024-01-30T14:08:58;11.00;99.90
22781;DHT22;11557;50.884;4.322;2024-01-30T14:11:24;11.00;99.90
22781;DHT22;11557;50.884;4.322;2024-01-30T14:13:50;10.90;99.90
22781;DHT22;11557;50.884;4.322;2024-01-30T14:16:17;10.90;99.90
22781;DHT22;11557;50.884;4.322;2024-01-30T14:18:43;10.80;99.90
22781;DHT22;11557;50.884;4.322;2024-01-30T14:21:08;10.90;99.90
22781;DHT22;11557;50.884;4.322;2024-01-30T14:23:34;10.90;99.90
22781;DHT22;11557;50.884;4.322;2024-01-30T14:26:00;11.00;99.90
22781;DHT22;11557;50.884;4.322;2024-01-30T14:28:25;10.90;99.90
22781;DHT22;11557;50.884;4.322;2024-01-30T14:30:51;10.70;99.90
22781;DHT22;11557;50.884;4.322;2024-01-30T14:33:17;10.60;99.90
22781;DHT22;11557;50.884;4.322;2024-01-30T14:35:42;10.50;99.90
22781;DHT22;11557;50.884;4.322;2024-01-30T14:38:08;10.50;99.90
22781;DHT22;11557;50.884;4.322;2024-01-30T14:40:35;10.50;99.90
22781;DHT22;11557;50.884;4.322;2024-01-30T14:43:01;10.50;99.90
22781;DHT22;11557;50.884;4.322;2024-01-30T14:45:27;10.60;99.90
22781;DHT22;11557;50.884;4.322;2024-01-30T14:47:53;10.60;99.90
22781;DHT22;11557;50.884;4.322;2024-01-30T14:50:18;10.60;99.90
22781;DHT22;11557;50.884;4.322;2024-01-30T14:52:44;10.60;99.90
22781;DHT22;11557;50.884;4.322;2024-01-30T14:55:10;10.60;99.90
22781;DHT22;11557;50.884;4.322;2024-01-30T14:57:36;10.40;99.90
22781;DHT22;11557;50.884;4.322;2024-01-30T15:00:04;10.30;99.90
22781;DHT22;11557;50.884;4.322;2024-01-30T15:02:30;10.30;99.90
22781;DHT22;11557;50.884;4.322;2024-01-30T15:04:56;10.30;99.90
22781;DHT22;11557;50.884;4.322;2024-01-30T15:07:21;10.20;99.90
22781;DHT22;11557;50.884;4.322;2024-01-30T15:09:47;10.10;99.90
22781;DHT22;11557;50.884;4.322;2024-01-30T15:12:12;10.20;99.90
22781;DHT22;11557;50.884;4.322;2024-01-30T15:14:38;10.10;99.90
22781;DHT22;11557;50.884;4.322;2024-01-30T15:17:04;10.20;99.90
22781;DHT22;11557;50.884;4.322;2024-01-30T15:19:30;10.30;99.90
22781;DHT22;11557;50.884;4.322;2024-01-30T15:21:55;10.30;99.90
22781;DHT22;11557;50.884;4.322;2024-01-30T15:24:21;10.30;99.90